sensor_id;sensor_type;location;lat;lon;timestamp;temperature;humidity
22456;DHT22;11395;53.204;6.502;2023-08-01T00:00:07;23.60;91.10
22456;DHT22;11395;53.204;6.502;2023-08-01T00:02:40;23.60;90.70
22456;DHT22;11395;53.204;6.502;2023-08-01T00:05:09;23.60;90.80
22456;DHT22;11395;53.204;6.502;2023-08-01T00:07:35;23.60;90.90
22456;DHT22;11395;53.204;6.502;2023-08-01T00:10:02;23.60;90.80
22456;DHT22;11395;53.204;6.502;2023-08-01T00:12:28;23.50;90.80
22456;DHT22;11395;53.204;6.502;2023-08-01T00:14:55;23.50;90.70
22456;DHT22;11395;53.204;6.502;2023-08-01T00:17:21;23.70;90.80
22456;DHT22;11395;53.204;6.502;2023-08-01T00:19:47;23.50;90.60
22456;DHT22;11395;53.204;6.502;2023-08-01T00:22:13;23.50;90.60
22456;DHT22;11395;53.204;6.502;2023-08-01T00:24:40;23.50;90.60
22456;DHT22;11395;53.204;6.502;2023-08-01T00:27:06;23.90;90.70
22456;DHT22;11395;53.204;6.502;2023-08-01T00:29:35;23.70;90.70
22456;DHT22;11395;53.204;6.502;2023-08-01T00:32:01;23.50;90.60
22456;DHT22;11395;53.204;6.502;2023-08-01T00:34:27;23.60;90.70
22456;DHT22;11395;53.204;6.502;2023-08-01T00:36:53;23.50;90.70
22456;DHT22;11395;53.204;6.502;2023-08-01T00:39:19;23.50;90.40
22456;DHT22;11395;53.204;6.502;2023-08-01T00:41:46;23.50;90.50
22456;DHT22;11395;53.204;6.502;2023-08-01T00:44:12;23.50;90.50
22456;DHT22;11395;53.204;6.502;2023-08-01T00:46:38;23.40;90.30
22456;DHT22;11395;53.204;6.502;2023-08-01T00:49:04;23.70;90.70
22456;DHT22;11395;53.204;6.502;2023-08-01T00:51:31;23.50;90.50
22456;DHT22;11395;53.204;6.502;2023-08-01T00:53:59;23.40;90.70
22456;DHT22;11395;53.204;6.502;2023-08-01T00:56:26;23.40;90.80
22456;DHT22;11395;53.204;6.502;2023-08-01T00:58:52;23.40;90.60
22456;DHT22;11395;53.204;6.502;2023-08-01T01:01:18;23.40;90.60
22456;DHT22;11395;53.204;6.502;2023-08-01T01:03:45;23.50;90.50
22456;DHT22;11395;53.204;6.502;2023-08-01T01:06:16;23.40;90.70
22456;DHT22;11395;53.204;6.502;2023-08-01T01:08:44;23.40;91.10
22456;DHT22;11395;53.204;6.502;2023-08-01T01:11:11;23.60;90.70
22456;DHT22;11395;53.204;6.502;2023-08-01T01:13:37;23.40;90.70
22456;DHT22;11395;53.204;6.502;2023-08-01T01:16:04;23.40;90.60
22456;DHT22;11395;53.204;6.502;2023-08-01T01:18:30;23.40;90.60
22456;DHT22;11395;53.204;6.502;2023-08-01T01:20:56;23.40;90.50
22456;DHT22;11395;53.204;6.502;2023-08-01T01:23:23;23.40;90.50
22456;DHT22;11395;53.204;6.502;2023-08-01T01:25:51;23.40;90.90
22456;DHT22;11395;53.204;6.502;2023-08-01T01:28:18;23.40;90.90
22456;DHT22;11395;53.204;6.502;2023-08-01T01:30:45;23.40;90.70
22456;DHT22;11395;53.204;6.502;2023-08-01T01:33:12;23.30;90.90
22456;DHT22;11395;53.204;6.502;2023-08-01T01:35:38;23.40;90.70
22456;DHT22;11395;53.204;6.502;2023-08-01T01:38:04;23.30;90.70
22456;DHT22;11395;53.204;6.502;2023-08-01T01:40:31;23.30;90.80
22456;DHT22;11395;53.204;6.502;2023-08-01T01:42:59;23.30;90.80
22456;DHT22;11395;53.204;6.502;2023-08-01T01:45:26;23.40;91.00
22456;DHT22;11395;53.204;6.502;2023-08-01T01:47:52;23.30;90.70
22456;DHT22;11395;53.204;6.502;2023-08-01T01:50:18;23.30;90.90
22456;DHT22;11395;53.204;6.502;2023-08-01T01:52:45;23.30;91.30
22456;DHT22;11395;53.204;6.502;2023-08-01T01:55:12;23.20;91.00
22456;DHT22;11395;53.204;6.502;2023-08-01T01:57:39;23.20;90.80
22456;DHT22;11395;53.204;6.502;2023-08-01T02:00:07;23.30;90.70
22456;DHT22;11395;53.204;6.502;2023-08-01T02:02:39;23.20;90.70
22456;DHT22;11395;53.204;6.502;2023-08-01T02:05:05;23.20;90.70
22456;DHT22;11395;53.204;6.502;2023-08-01T02:07:32;23.20;90.80
22456;DHT22;11395;53.204;6.502;2023-08-01T02:10:00;23.20;90.80
22456;DHT22;11395;53.204;6.502;2023-08-01T02:12:28;23.20;91.00
22456;DHT22;11395;53.204;6.502;2023-08-01T02:14:58;23.20;90.40
22456;DHT22;11395;53.204;6.502;2023-08-01T02:17:24;23.20;91.00
22456;DHT22;11395;53.204;6.502;2023-08-01T02:19:51;23.10;90.80
22456;DHT22;11395;53.204;6.502;2023-08-01T02:22:17;23.20;90.80
22456;DHT22;11395;53.204;6.502;2023-08-01T02:24:44;23.20;90.90
22456;DHT22;11395;53.204;6.502;2023-08-01T02:27:10;23.10;90.60
22456;DHT22;11395;53.204;6.502;2023-08-01T02:29:36;23.20;91.10
22456;DHT22;11395;53.204;6.502;2023-08-01T02:32:02;23.20;90.70
22456;DHT22;11395;53.204;6.502;2023-08-01T02:34:29;23.20;91.00
22456;DHT22;11395;53.204;6.502;2023-08-01T02:36:55;23.10;90.60
22456;DHT22;11395;53.204;6.502;2023-08-01T02:39:22;23.10;90.70
22456;DHT22;11395;53.204;6.502;2023-08-01T02:41:48;23.10;90.60
22456;DHT22;11395;53.204;6.502;2023-08-01T02:44:14;23.10;90.70
22456;DHT22;11395;53.204;6.502;2023-08-01T02:46:40;23.10;90.80
22456;DHT22;11395;53.204;6.502;2023-08-01T02:49:07;23.00;90.80
22456;DHT22;11395;53.204;6.502;2023-08-01T02:51:33;23.10;90.80
22456;DHT22;11395;53.204;6.502;2023-08-01T02:53:59;23.10;90.80
22456;DHT22;11395;53.204;6.502;2023-08-01T02:56:25;23.10;90.80
22456;DHT22;11395;53.204;6.502;2023-08-01T02:58:53;23.10;90.80
22456;DHT22;11395;53.204;6.502;2023-08-01T03:01:21;23.50;90.90
22456;DHT22;11395;53.204;6.502;2023-08-01T03:03:47;23.10;90.80
22456;DHT22;11395;53.204;6.502;2023-08-01T03:06:14;22.90;90.80
22456;DHT22;11395;53.204;6.502;2023-08-01T03:08:41;23.10;90.90
22456;DHT22;11395;53.204;6.502;2023-08-01T03:11:07;23.00;90.90
22456;DHT22;11395;53.204;6.502;2023-08-01T03:13:33;23.00;90.70
22456;DHT22;11395;53.204;6.502;2023-08-01T03:16:00;23.00;90.80
22456;DHT22;11395;53.204;6.502;2023-08-01T03:18:26;23.00;90.90
22456;DHT22;11395;53.204;6.502;2023-08-01T03:20:52;23.00;90.80
22456;DHT22;11395;53.204;6.502;2023-08-01T03:23:18;23.00;91.00
22456;DHT22;11395;53.204;6.502;2023-08-01T03:25:44;23.00;90.80
22456;DHT22;11395;53.204;6.502;2023-08-01T03:28:10;23.00;90.80
22456;DHT22;11395;53.204;6.502;2023-08-01T03:30:37;23.00;90.70
22456;DHT22;11395;53.204;6.502;2023-08-01T03:33:03;23.00;90.80
22456;DHT22;11395;53.204;6.502;2023-08-01T03:35:30;23.00;91.10
22456;DHT22;11395;53.204;6.502;2023-08-01T03:37:56;22.90;90.90
22456;DHT22;11395;53.204;6.502;2023-08-01T03:40:23;22.90;90.80
22456;DHT22;11395;53.204;6.502;2023-08-01T03:42:49;22.90;90.80
22456;DHT22;11395;53.204;6.502;2023-08-01T03:45:15;22.90;90.70
22456;DHT22;11395;53.204;6.502;2023-08-01T03:47:41;22.90;90.80
22456;DHT22;11395;53.204;6.502;2023-08-01T03:50:07;22.90;90.80
22456;DHT22;11395;53.204;6.502;2023-08-01T03:52:34;22.90;90.90
22456;DHT22;11395;53.204;6.502;2023-08-01T03:55:00;22.90;90.80
22456;DHT22;11395;53.204;6.502;2023-08-01T03:57:26;22.90;90.80
22456;DHT22;11395;53.204;6.502;2023-08-01T03:59:53;22.90;90.80
22456;DHT22;11395;53.204;6.502;2023-08-01T04:02:19;23.00;91.20
22456;DHT22;11395;53.204;6.502;2023-08-01T04:04:45;22.90;90.80
22456;DHT22;11395;53.204;6.502;2023-08-01T04:07:11;22.90;90.80
22456;DHT22;11395;53.204;6.502;2023-08-01T04:09:38;22.90;90.90
22456;DHT22;11395;53.204;6.502;2023-08-01T04:12:05;22.90;90.60
22456;DHT22;11395;53.204;6.502;2023-08-01T04:14:33;22.90;90.70
22456;DHT22;11395;53.204;6.502;2023-08-01T04:16:59;22.90;91.00
22456;DHT22;11395;53.204;6.502;2023-08-01T04:19:25;22.90;90.80
22456;DHT22;11395;53.204;6.502;2023-08-01T04:21:51;23.30;90.80
22456;DHT22;11395;53.204;6.502;2023-08-01T04:24:18;22.90;90.80
22456;DHT22;11395;53.204;6.502;2023-08-01T04:26:44;22.90;90.80
22456;DHT22;11395;53.204;6.502;2023-08-01T04:29:10;22.90;91.00
22456;DHT22;11395;53.204;6.502;2023-08-01T04:31:36;22.90;90.50
22456;DHT22;11395;53.204;6.502;2023-08-01T04:34:02;23.10;90.30
22456;DHT22;11395;53.204;6.502;2023-08-01T04:36:28;23.20;90.30
22456;DHT22;11395;53.204;6.502;2023-08-01T04:38:55;23.20;90.20
22456;DHT22;11395;53.204;6.502;2023-08-01T04:41:21;23.30;90.30
22456;DHT22;11395;53.204;6.502;2023-08-01T04:43:47;23.40;89.90
22456;DHT22;11395;53.204;6.502;2023-08-01T04:46:13;23.50;90.00
22456;DHT22;11395;53.204;6.502;2023-08-01T04:48:39;23.80;90.00
22456;DHT22;11395;53.204;6.502;2023-08-01T04:51:05;23.80;89.60
22456;DHT22;11395;53.204;6.502;2023-08-01T04:53:31;23.90;89.20
22456;DHT22;11395;53.204;6.502;2023-08-01T04:55:58;24.10;88.80
22456;DHT22;11395;53.204;6.502;2023-08-01T04:58:24;24.20;88.50
22456;DHT22;11395;53.204;6.502;2023-08-01T05:00:50;24.30;88.20
22456;DHT22;11395;53.204;6.502;2023-08-01T05:03:16;24.40;88.00
22456;DHT22;11395;53.204;6.502;2023-08-01T05:05:44;24.60;87.60
22456;DHT22;11395;53.204;6.502;2023-08-01T05:08:10;24.70;87.30
22456;DHT22;11395;53.204;6.502;2023-08-01T05:10:36;24.80;87.40
22456;DHT22;11395;53.204;6.502;2023-08-01T05:13:02;24.90;87.10
22456;DHT22;11395;53.204;6.502;2023-08-01T05:15:28;25.00;86.10
22456;DHT22;11395;53.204;6.502;2023-08-01T05:17:54;25.10;85.90
22456;DHT22;11395;53.204;6.502;2023-08-01T05:20:21;25.10;85.70
22456;DHT22;11395;53.204;6.502;2023-08-01T05:22:48;25.20;86.00
22456;DHT22;11395;53.204;6.502;2023-08-01T05:25:14;25.40;85.70
22456;DHT22;11395;53.204;6.502;2023-08-01T05:27:40;25.20;85.60
22456;DHT22;11395;53.204;6.502;2023-08-01T05:30:07;25.20;85.50
22456;DHT22;11395;53.204;6.502;2023-08-01T05:32:33;25.20;85.50
22456;DHT22;11395;53.204;6.502;2023-08-01T05:34:59;25.20;85.40
22456;DHT22;11395;53.204;6.502;2023-08-01T05:37:25;25.20;85.50
22456;DHT22;11395;53.204;6.502;2023-08-01T05:39:51;25.20;85.00
22456;DHT22;11395;53.204;6.502;2023-08-01T05:42:17;25.20;85.60
22456;DHT22;11395;53.204;6.502;2023-08-01T05:44:44;25.20;86.00
22456;DHT22;11395;53.204;6.502;2023-08-01T05:47:10;25.30;84.90
22456;DHT22;11395;53.204;6.502;2023-08-01T05:49:36;25.30;85.40
22456;DHT22;11395;53.204;6.502;2023-08-01T05:52:03;25.30;85.20
22456;DHT22;11395;53.204;6.502;2023-08-01T05:54:29;25.30;85.00
22456;DHT22;11395;53.204;6.502;2023-08-01T05:56:55;25.40;85.10
22456;DHT22;11395;53.204;6.502;2023-08-01T05:59:21;25.30;85.00
22456;DHT22;11395;53.204;6.502;2023-08-01T06:01:47;25.30;85.50
22456;DHT22;11395;53.204;6.502;2023-08-01T06:04:14;25.30;85.20
22456;DHT22;11395;53.204;6.502;2023-08-01T06:06:40;25.30;85.00
22456;DHT22;11395;53.204;6.502;2023-08-01T06:09:06;25.30;84.70
22456;DHT22;11395;53.204;6.502;2023-08-01T06:11:32;25.30;84.60
22456;DHT22;11395;53.204;6.502;2023-08-01T06:13:59;25.30;85.00
22456;DHT22;11395;53.204;6.502;2023-08-01T06:16:25;25.40;85.00
22456;DHT22;11395;53.204;6.502;2023-08-01T06:18:52;25.30;84.40
22456;DHT22;11395;53.204;6.502;2023-08-01T06:21:18;25.30;84.40
22456;DHT22;11395;53.204;6.502;2023-08-01T06:23:45;25.30;85.00
22456;DHT22;11395;53.204;6.502;2023-08-01T06:26:11;25.30;84.50
22456;DHT22;11395;53.204;6.502;2023-08-01T06:28:37;25.30;84.40
22456;DHT22;11395;53.204;6.502;2023-08-01T06:31:03;25.30;84.50
22456;DHT22;11395;53.204;6.502;2023-08-01T06:33:29;25.20;84.60
22456;DHT22;11395;53.204;6.502;2023-08-01T06:35:55;25.20;84.10
22456;DHT22;11395;53.204;6.502;2023-08-01T06:38:21;25.20;84.70
22456;DHT22;11395;53.204;6.502;2023-08-01T06:40:48;25.10;84.70
22456;DHT22;11395;53.204;6.502;2023-08-01T06:43:14;25.10;84.60
22456;DHT22;11395;53.204;6.502;2023-08-01T06:45:40;25.10;84.80
22456;DHT22;11395;53.204;6.502;2023-08-01T06:48:06;25.30;84.80
22456;DHT22;11395;53.204;6.502;2023-08-01T06:50:33;25.20;85.00
22456;DHT22;11395;53.204;6.502;2023-08-01T06:52:59;25.10;84.70
22456;DHT22;11395;53.204;6.502;2023-08-01T06:55:27;25.10;84.70
22456;DHT22;11395;53.204;6.502;2023-08-01T06:57:53;25.10;86.20
22456;DHT22;11395;53.204;6.502;2023-08-01T07:00:19;25.10;84.90
22456;DHT22;11395;53.204;6.502;2023-08-01T07:02:45;25.20;84.70
22456;DHT22;11395;53.204;6.502;2023-08-01T07:05:12;25.20;84.80
22456;DHT22;11395;53.204;6.502;2023-08-01T07:07:38;25.20;84.50
22456;DHT22;11395;53.204;6.502;2023-08-01T07:10:04;25.20;84.80
22456;DHT22;11395;53.204;6.502;2023-08-01T07:12:31;25.20;84.30
22456;DHT22;11395;53.204;6.502;2023-08-01T07:14:57;25.20;84.60
22456;DHT22;11395;53.204;6.502;2023-08-01T07:17:23;25.10;84.50
22456;DHT22;11395;53.204;6.502;2023-08-01T07:19:49;25.10;84.60
22456;DHT22;11395;53.204;6.502;2023-08-01T07:22:15;25.10;84.90
22456;DHT22;11395;53.204;6.502;2023-08-01T07:24:41;25.10;84.60
22456;DHT22;11395;53.204;6.502;2023-08-01T07:27:07;25.10;84.90
22456;DHT22;11395;53.204;6.502;2023-08-01T07:29:34;25.10;84.70
22456;DHT22;11395;53.204;6.502;2023-08-01T07:32:00;25.20;85.30
22456;DHT22;11395;53.204;6.502;2023-08-01T07:34:26;25.10;85.00
22456;DHT22;11395;53.204;6.502;2023-08-01T07:36:52;25.20;85.20
22456;DHT22;11395;53.204;6.502;2023-08-01T07:39:18;25.10;85.00
22456;DHT22;11395;53.204;6.502;2023-08-01T07:41:45;25.20;85.30
22456;DHT22;11395;53.204;6.502;2023-08-01T07:44:11;25.10;85.50
22456;DHT22;11395;53.204;6.502;2023-08-01T07:46:37;25.00;85.60
22456;DHT22;11395;53.204;6.502;2023-08-01T07:49:03;25.00;85.80
22456;DHT22;11395;53.204;6.502;2023-08-01T07:51:29;25.00;85.80
22456;DHT22;11395;53.204;6.502;2023-08-01T07:53:57;25.00;85.40
22456;DHT22;11395;53.204;6.502;2023-08-01T07:56:23;25.10;86.30
22456;DHT22;11395;53.204;6.502;2023-08-01T07:58:49;25.30;85.80
22456;DHT22;11395;53.204;6.502;2023-08-01T08:01:15;25.30;84.80
22456;DHT22;11395;53.204;6.502;2023-08-01T08:03:41;25.30;84.80
22456;DHT22;11395;53.204;6.502;2023-08-01T08:06:08;25.50;84.70
22456;DHT22;11395;53.204;6.502;2023-08-01T08:08:34;25.70;84.30
22456;DHT22;11395;53.204;6.502;2023-08-01T08:11:00;25.70;83.60
22456;DHT22;11395;53.204;6.502;2023-08-01T08:13:29;25.70;82.40
22456;DHT22;11395;53.204;6.502;2023-08-01T08:15:56;25.50;83.70
22456;DHT22;11395;53.204;6.502;2023-08-01T08:18:23;25.50;84.40
22456;DHT22;11395;53.204;6.502;2023-08-01T08:20:49;25.50;84.10
22456;DHT22;11395;53.204;6.502;2023-08-01T08:23:16;25.40;84.20
22456;DHT22;11395;53.204;6.502;2023-08-01T08:25:43;25.40;84.40
22456;DHT22;11395;53.204;6.502;2023-08-01T08:28:14;25.40;84.90
22456;DHT22;11395;53.204;6.502;2023-08-01T08:30:40;25.30;84.80
22456;DHT22;11395;53.204;6.502;2023-08-01T08:33:06;25.10;84.40
22456;DHT22;11395;53.204;6.502;2023-08-01T08:35:33;25.30;85.00
22456;DHT22;11395;53.204;6.502;2023-08-01T08:38:02;25.20;85.70
22456;DHT22;11395;53.204;6.502;2023-08-01T08:40:32;25.30;85.80
22456;DHT22;11395;53.204;6.502;2023-08-01T08:43:01;25.10;86.10
22456;DHT22;11395;53.204;6.502;2023-08-01T08:45:29;25.10;86.50
22456;DHT22;11395;53.204;6.502;2023-08-01T08:48:01;25.10;86.30
22456;DHT22;11395;53.204;6.502;2023-08-01T08:50:30;25.00;86.70
22456;DHT22;11395;53.204;6.502;2023-08-01T08:52:57;25.10;86.50
22456;DHT22;11395;53.204;6.502;2023-08-01T08:55:24;25.00;86.50
22456;DHT22;11395;53.204;6.502;2023-08-01T08:57:53;25.20;85.60
22456;DHT22;11395;53.204;6.502;2023-08-01T09:00:19;25.40;85.90
22456;DHT22;11395;53.204;6.502;2023-08-01T09:02:46;26.00;83.70
22456;DHT22;11395;53.204;6.502;2023-08-01T09:05:12;26.00;82.80
22456;DHT22;11395;53.204;6.502;2023-08-01T09:07:41;25.90;83.00
22456;DHT22;11395;53.204;6.502;2023-08-01T09:10:08;25.70;82.90
22456;DHT22;11395;53.204;6.502;2023-08-01T09:12:35;25.60;83.80
22456;DHT22;11395;53.204;6.502;2023-08-01T09:15:01;25.50;84.10
22456;DHT22;11395;53.204;6.502;2023-08-01T09:17:27;25.50;83.80
22456;DHT22;11395;53.204;6.502;2023-08-01T09:20:06;25.50;83.80
22456;DHT22;11395;53.204;6.502;2023-08-01T09:22:46;25.40;85.00
22456;DHT22;11395;53.204;6.502;2023-08-01T09:25:13;25.50;85.70
22456;DHT22;11395;53.204;6.502;2023-08-01T09:27:39;25.40;84.30
22456;DHT22;11395;53.204;6.502;2023-08-01T09:30:13;25.50;84.40
22456;DHT22;11395;53.204;6.502;2023-08-01T09:32:53;25.60;85.00
22456;DHT22;11395;53.204;6.502;2023-08-01T09:35:19;25.70;85.00
22456;DHT22;11395;53.204;6.502;2023-08-01T09:37:45;25.70;83.60
22456;DHT22;11395;53.204;6.502;2023-08-01T09:40:11;25.60;83.40
22456;DHT22;11395;53.204;6.502;2023-08-01T09:42:42;25.70;83.80
22456;DHT22;11395;53.204;6.502;2023-08-01T09:47:39;25.40;84.50
22456;DHT22;11395;53.204;6.502;2023-08-01T09:50:06;25.40;83.50
22456;DHT22;11395;53.204;6.502;2023-08-01T09:52:33;25.50;84.30
22456;DHT22;11395;53.204;6.502;2023-08-01T09:54:59;25.60;84.10
22456;DHT22;11395;53.204;6.502;2023-08-01T09:57:28;25.40;84.10
22456;DHT22;11395;53.204;6.502;2023-08-01T09:59:58;25.50;84.80
22456;DHT22;11395;53.204;6.502;2023-08-01T10:02:26;25.30;85.10
22456;DHT22;11395;53.204;6.502;2023-08-01T10:04:57;25.40;84.30
22456;DHT22;11395;53.204;6.502;2023-08-01T10:07:26;25.30;84.10
22456;DHT22;11395;53.204;6.502;2023-08-01T10:09:55;25.30;85.00
22456;DHT22;11395;53.204;6.502;2023-08-01T10:12:27;25.30;85.40
22456;DHT22;11395;53.204;6.502;2023-08-01T10:14:54;25.30;83.30
22456;DHT22;11395;53.204;6.502;2023-08-01T10:17:21;25.30;84.80
22456;DHT22;11395;53.204;6.502;2023-08-01T10:19:49;25.30;84.30
22456;DHT22;11395;53.204;6.502;2023-08-01T10:22:18;25.30;84.00
22456;DHT22;11395;53.204;6.502;2023-08-01T10:24:46;25.20;84.50
22456;DHT22;11395;53.204;6.502;2023-08-01T10:27:20;25.20;84.50
22456;DHT22;11395;53.204;6.502;2023-08-01T10:30:00;25.20;85.70
22456;DHT22;11395;53.204;6.502;2023-08-01T10:32:39;25.10;86.10
22456;DHT22;11395;53.204;6.502;2023-08-01T10:35:07;25.10;84.60
22456;DHT22;11395;53.204;6.502;2023-08-01T10:37:44;25.10;85.20
22456;DHT22;11395;53.204;6.502;2023-08-01T10:40:13;25.10;86.20
22456;DHT22;11395;53.204;6.502;2023-08-01T10:42:41;25.20;84.30
22456;DHT22;11395;53.204;6.502;2023-08-01T10:45:20;25.30;84.70
22456;DHT22;11395;53.204;6.502;2023-08-01T10:47:48;25.50;85.70
22456;DHT22;11395;53.204;6.502;2023-08-01T10:50:15;25.60;84.10
22456;DHT22;11395;53.204;6.502;2023-08-01T10:52:42;25.40;84.00
22456;DHT22;11395;53.204;6.502;2023-08-01T10:55:08;25.40;83.80
22456;DHT22;11395;53.204;6.502;2023-08-01T10:57:37;25.40;83.60
22456;DHT22;11395;53.204;6.502;2023-08-01T11:00:05;25.40;84.10
22456;DHT22;11395;53.204;6.502;2023-08-01T11:02:35;25.40;83.70
22456;DHT22;11395;53.204;6.502;2023-08-01T11:05:06;25.60;84.60
22456;DHT22;11395;53.204;6.502;2023-08-01T11:07:36;25.40;83.00
22456;DHT22;11395;53.204;6.502;2023-08-01T11:12:40;25.40;84.30
22456;DHT22;11395;53.204;6.502;2023-08-01T11:15:08;25.50;83.40
22456;DHT22;11395;53.204;6.502;2023-08-01T11:17:42;25.50;83.80
22456;DHT22;11395;53.204;6.502;2023-08-01T11:20:12;25.50;85.00
22456;DHT22;11395;53.204;6.502;2023-08-01T11:25:18;25.60;83.70
22456;DHT22;11395;53.204;6.502;2023-08-01T11:27:44;25.60;83.80
22456;DHT22;11395;53.204;6.502;2023-08-01T11:30:11;25.60;83.50
22456;DHT22;11395;53.204;6.502;2023-08-01T11:32:38;25.60;83.50
22456;DHT22;11395;53.204;6.502;2023-08-01T11:35:05;25.60;84.10
22456;DHT22;11395;53.204;6.502;2023-08-01T11:37:32;25.60;83.00
22456;DHT22;11395;53.204;6.502;2023-08-01T11:39:59;25.60;83.90
22456;DHT22;11395;53.204;6.502;2023-08-01T11:42:29;25.70;83.40
22456;DHT22;11395;53.204;6.502;2023-08-01T11:45:10;25.70;83.50
22456;DHT22;11395;53.204;6.502;2023-08-01T11:47:38;25.70;83.90
22456;DHT22;11395;53.204;6.502;2023-08-01T11:50:10;25.70;83.30
22456;DHT22;11395;53.204;6.502;2023-08-01T11:52:36;25.70;83.50
22456;DHT22;11395;53.204;6.502;2023-08-01T11:55:03;25.70;83.10
22456;DHT22;11395;53.204;6.502;2023-08-01T11:57:29;25.70;83.10
22456;DHT22;11395;53.204;6.502;2023-08-01T11:59:56;25.70;83.20
22456;DHT22;11395;53.204;6.502;2023-08-01T12:02:26;25.70;83.20
22456;DHT22;11395;53.204;6.502;2023-08-01T12:04:53;25.70;84.30
22456;DHT22;11395;53.204;6.502;2023-08-01T12:07:20;25.80;83.80
22456;DHT22;11395;53.204;6.502;2023-08-01T12:10:00;25.70;83.70
22456;DHT22;11395;53.204;6.502;2023-08-01T12:12:27;25.70;84.70
22456;DHT22;11395;53.204;6.502;2023-08-01T12:14:54;25.60;83.50
22456;DHT22;11395;53.204;6.502;2023-08-01T12:17:20;25.60;83.40
22456;DHT22;11395;53.204;6.502;2023-08-01T12:19:47;25.60;83.20
22456;DHT22;11395;53.204;6.502;2023-08-01T12:22:13;25.60;83.20
22456;DHT22;11395;53.204;6.502;2023-08-01T12:24:40;25.60;83.30
22456;DHT22;11395;53.204;6.502;2023-08-01T12:27:08;25.60;83.40
22456;DHT22;11395;53.204;6.502;2023-08-01T12:29:34;25.60;83.60
22456;DHT22;11395;53.204;6.502;2023-08-01T12:32:02;25.60;83.30
22456;DHT22;11395;53.204;6.502;2023-08-01T12:34:28;25.50;84.10
22456;DHT22;11395;53.204;6.502;2023-08-01T12:36:55;25.50;83.40
22456;DHT22;11395;53.204;6.502;2023-08-01T12:39:21;25.50;83.40
22456;DHT22;11395;53.204;6.502;2023-08-01T12:41:47;25.50;83.10
22456;DHT22;11395;53.204;6.502;2023-08-01T12:44:13;25.50;83.00
22456;DHT22;11395;53.204;6.502;2023-08-01T12:46:41;25.50;83.20
22456;DHT22;11395;53.204;6.502;2023-08-01T12:49:08;25.50;83.20
22456;DHT22;11395;53.204;6.502;2023-08-01T12:51:34;25.60;83.20
22456;DHT22;11395;53.204;6.502;2023-08-01T12:54:00;25.60;83.50
22456;DHT22;11395;53.204;6.502;2023-08-01T12:56:26;25.50;83.30
22456;DHT22;11395;53.204;6.502;2023-08-01T12:58:52;25.50;83.60
22456;DHT22;11395;53.204;6.502;2023-08-01T13:01:18;25.50;83.40
22456;DHT22;11395;53.204;6.502;2023-08-01T13:03:45;25.50;83.60
22456;DHT22;11395;53.204;6.502;2023-08-01T13:06:12;25.50;83.30
22456;DHT22;11395;53.204;6.502;2023-08-01T13:08:39;25.60;84.10
22456;DHT22;11395;53.204;6.502;2023-08-01T13:11:12;25.60;83.40
22456;DHT22;11395;53.204;6.502;2023-08-01T13:13:40;25.60;84.90
22456;DHT22;11395;53.204;6.502;2023-08-01T13:16:06;25.70;84.00
22456;DHT22;11395;53.204;6.502;2023-08-01T13:18:32;25.70;83.20
22456;DHT22;11395;53.204;6.502;2023-08-01T13:20:59;25.70;83.20
22456;DHT22;11395;53.204;6.502;2023-08-01T13:23:26;25.70;83.00
22456;DHT22;11395;53.204;6.502;2023-08-01T13:25:52;25.70;83.70
22456;DHT22;11395;53.204;6.502;2023-08-01T13:28:18;25.90;83.70
22456;DHT22;11395;53.204;6.502;2023-08-01T13:30:45;25.60;83.30
22456;DHT22;11395;53.204;6.502;2023-08-01T13:33:11;25.70;83.90
22456;DHT22;11395;53.204;6.502;2023-08-01T13:35:37;25.60;83.20
22456;DHT22;11395;53.204;6.502;2023-08-01T13:38:03;25.60;83.40
22456;DHT22;11395;53.204;6.502;2023-08-01T13:40:31;26.00;83.80
22456;DHT22;11395;53.204;6.502;2023-08-01T13:42:57;25.70;83.80
22456;DHT22;11395;53.204;6.502;2023-08-01T13:45:23;25.70;83.80
22456;DHT22;11395;53.204;6.502;2023-08-01T13:47:49;25.70;83.60
22456;DHT22;11395;53.204;6.502;2023-08-01T13:50:15;25.60;83.90
22456;DHT22;11395;53.204;6.502;2023-08-01T13:52:42;25.70;83.60
22456;DHT22;11395;53.204;6.502;2023-08-01T13:55:09;25.70;83.10
22456;DHT22;11395;53.204;6.502;2023-08-01T13:57:35;25.80;83.20
22456;DHT22;11395;53.204;6.502;2023-08-01T14:00:02;25.80;83.40
22456;DHT22;11395;53.204;6.502;2023-08-01T14:02:37;25.90;83.00
22456;DHT22;11395;53.204;6.502;2023-08-01T14:05:03;25.90;83.50
22456;DHT22;11395;53.204;6.502;2023-08-01T14:07:30;25.80;83.20
22456;DHT22;11395;53.204;6.502;2023-08-01T14:09:56;25.90;83.20
22456;DHT22;11395;53.204;6.502;2023-08-01T14:12:23;25.80;83.10
22456;DHT22;11395;53.204;6.502;2023-08-01T14:14:50;25.80;83.20
22456;DHT22;11395;53.204;6.502;2023-08-01T14:17:16;25.80;83.10
22456;DHT22;11395;53.204;6.502;2023-08-01T14:19:42;25.80;82.90
22456;DHT22;11395;53.204;6.502;2023-08-01T14:22:09;25.80;82.90
22456;DHT22;11395;53.204;6.502;2023-08-01T14:24:35;25.80;83.30
22456;DHT22;11395;53.204;6.502;2023-08-01T14:27:01;25.80;83.00
22456;DHT22;11395;53.204;6.502;2023-08-01T14:29:27;25.80;82.90
22456;DHT22;11395;53.204;6.502;2023-08-01T14:31:54;25.90;83.90
22456;DHT22;11395;53.204;6.502;2023-08-01T14:34:20;25.70;82.90
22456;DHT22;11395;53.204;6.502;2023-08-01T14:36:46;25.70;82.90
22456;DHT22;11395;53.204;6.502;2023-08-01T14:39:12;25.80;83.50
22456;DHT22;11395;53.204;6.502;2023-08-01T14:41:38;25.80;83.20
22456;DHT22;11395;53.204;6.502;2023-08-01T14:44:04;25.70;82.90
22456;DHT22;11395;53.204;6.502;2023-08-01T14:46:31;25.70;82.80
22456;DHT22;11395;53.204;6.502;2023-08-01T14:48:57;25.70;83.50
22456;DHT22;11395;53.204;6.502;2023-08-01T14:51:23;25.80;83.20
22456;DHT22;11395;53.204;6.502;2023-08-01T14:53:49;25.90;83.00
22456;DHT22;11395;53.204;6.502;2023-08-01T14:56:16;25.90;83.10
22456;DHT22;11395;53.204;6.502;2023-08-01T14:58:42;25.90;83.50
22456;DHT22;11395;53.204;6.502;2023-08-01T15:01:12;25.90;83.20
22456;DHT22;11395;53.204;6.502;2023-08-01T15:03:39;25.90;84.10
22456;DHT22;11395;53.204;6.502;2023-08-01T15:06:09;25.80;82.90
22456;DHT22;11395;53.204;6.502;2023-08-01T15:08:37;25.80;84.80
22456;DHT22;11395;53.204;6.502;2023-08-01T15:11:04;25.80;83.10
22456;DHT22;11395;53.204;6.502;2023-08-01T15:13:31;25.80;84.30
22456;DHT22;11395;53.204;6.502;2023-08-01T15:15:57;25.80;83.60
22456;DHT22;11395;53.204;6.502;2023-08-01T15:18:23;25.80;83.50
22456;DHT22;11395;53.204;6.502;2023-08-01T15:20:49;25.80;83.00
22456;DHT22;11395;53.204;6.502;2023-08-01T15:23:16;25.80;83.20
22456;DHT22;11395;53.204;6.502;2023-08-01T15:25:59;26.10;83.30
22456;DHT22;11395;53.204;6.502;2023-08-01T15:28:26;25.80;84.30
22456;DHT22;11395;53.204;6.502;2023-08-01T15:31:06;25.70;83.20
22456;DHT22;11395;53.204;6.502;2023-08-01T15:33:33;25.70;84.50
22456;DHT22;11395;53.204;6.502;2023-08-01T15:36:01;25.70;83.10